Time;durP1;ratioP1;P1;durP2;ratioP2;P2;SDS_P1;SDS_P2;PMS_P1;PMS_P2;Temp;Humidity;BMP_temperature;BMP_pressure;BME280_temperature;BME280_humidity;BME280_pressure;Samples;Min_cycle;Max_cycle;Signal;HPM_P1;HPM_P2
2021/06/22 00:02:46;;;;;;;12.50;7.62;;;;;;;20.79;71.55;98248.70;4085599;85;21096;-78
2021/06/22 00:08:47;;;;;;;13.22;8.50;;;;;;;20.81;71.97;98242.86;4135395;85;21060;-78
2021/06/22 00:14:48;;;;;;;14.05;7.87;;;;;;;20.78;71.92;98254.87;4145352;82;21041;-82
2021/06/22 00:20:50;;;;;;;11.97;7.97;;;;;;;20.60;72.30;98255.45;4175985;85;21030;-78
2021/06/22 00:26:51;;;;;;;15.55;9.05;;;;;;;20.46;72.80;98253.25;4185944;83;21038;-79
2021/06/22 00:32:57;;;;;;;11.73;7.03;;;;;;;20.42;72.94;98247.85;4137823;84;21093;-78
2021/06/22 00:38:56;;;;;;;10.45;8.20;;;;;;;20.38;73.36;98242.25;4175378;84;21101;-79
2021/06/22 00:45:00;;;;;;;13.90;8.88;;;;;;;20.40;73.48;98235.63;4183102;84;21089;-79
2021/06/22 00:51:02;;;;;;;17.17;9.15;;;;;;;20.25;73.68;98224.29;4169628;85;21039;-77
2021/06/22 00:57:08;;;;;;;14.87;8.05;;;;;;;20.34;74.09;98237.46;4151753;83;21103;-78
2021/06/22 01:03:11;;;;;;;17.07;8.57;;;;;;;20.50;74.07;98244.16;4169973;85;21047;-80
2021/06/22 01:09:17;;;;;;;15.70;9.15;;;;;;;20.61;73.94;98247.28;4174744;83;21078;-79
2021/06/22 01:15:26;;;;;;;14.90;9.08;;;;;;;20.41;73.96;98239.94;4151109;83;21097;-79
2021/06/22 01:21:30;;;;;;;18.30;8.75;;;;;;;20.13;74.21;98229.31;4118522;85;21085;-78
2021/06/22 01:27:39;;;;;;;10.75;7.95;;;;;;;19.88;74.63;98221.17;4108911;84;21159;-78
2021/06/22 01:33:47;;;;;;;9.75;7.72;;;;;;;19.70;74.99;98224.61;4099680;85;20976;-79
2021/06/22 01:39:49;;;;;;;11.10;8.28;;;;;;;19.63;75.35;98223.50;4122056;84;21103;-79
2021/06/22 01:45:53;;;;;;;15.88;8.95;;;;;;;19.68;75.83;98220.75;4132929;85;21125;-78
2021/06/22 01:51:56;;;;;;;11.95;6.92;;;;;;;19.58;75.81;98215.75;4136611;84;21565;-77
2021/06/22 01:58:00;;;;;;;13.75;8.60;;;;;;;19.49;76.20;98214.31;4121677;85;21085;-78
2021/06/22 02:04:20;;;;;;;11.90;6.47;;;;;;;19.54;76.20;98217.90;4115558;85;21045;-78
2021/06/22 02:10:22;;;;;;;9.38;7.70;;;;;;;19.45;76.58;98222.61;4135150;84;21088;-78
2021/06/22 02:16:31;;;;;;;22.17;9.00;;;;;;;19.58;76.52;98225.47;4122428;83;21129;-78
2021/06/22 02:22:36;;;;;;;11.53;8.95;;;;;;;19.57;76.31;98240.59;4133710;85;21636;-79
2021/06/22 02:28:38;;;;;;;12.73;8.65;;;;;;;19.23;76.54;98237.81;4124412;84;21546;-78
2021/06/22 02:34:41;;;;;;;10.65;7.95;;;;;;;19.12;77.09;98250.53;4124260;84;21155;-79
2021/06/22 02:40:42;;;;;;;10.32;6.50;;;;;;;19.28;77.41;98252.53;4129298;85;21041;-78
2021/06/22 02:46:44;;;;;;;13.30;7.92;;;;;;;19.49;77.25;98262.10;4114475;85;21007;-79
2021/06/22 02:52:48;;;;;;;9.15;7.50;;;;;;;19.42;77.04;98267.29;4124283;84;21089;-80
2021/06/22 02:58:49;;;;;;;14.65;8.63;;;;;;;19.34;77.48;98267.38;4133002;85;21073;-78
2021/06/22 03:04:56;;;;;;;14.18;8.20;;;;;;;19.23;77.26;98268.97;4031769;86;21062;-79
2021/06/22 03:10:58;;;;;;;14.13;8.83;;;;;;;19.07;77.70;98274.67;4123121;84;21053;-79
2021/06/22 03:17:00;;;;;;;7.62;6.10;;;;;;;19.09;78.14;98293.03;4122715;85;21056;-79
2021/06/22 03:23:02;;;;;;;14.65;8.60;;;;;;;19.35;78.36;98288.38;4133976;84;21057;-79
2021/06/22 03:29:03;;;;;;;12.60;9.33;;;;;;;19.58;77.95;98290.71;4111182;84;21070;-79
2021/06/22 03:35:13;;;;;;;11.00;7.80;;;;;;;19.52;77.96;98288.95;4122052;84;21073;-79
2021/06/22 03:41:15;;;;;;;18.17;9.95;;;;;;;19.42;78.19;98297.82;4127834;84;21593;-79
2021/06/22 03:47:22;;;;;;;16.17;7.60;;;;;;;19.51;78.58;98302.05;4127255;84;21105;-78
2021/06/22 03:53:23;;;;;;;15.35;9.23;;;;;;;19.70;78.62;98312.71;4122556;85;21017;-80
2021/06/22 03:59:26;;;;;;;11.57;8.90;;;;;;;19.92;78.41;98303.77;4123945;84;21037;-79
2021/06/22 04:05:29;;;;;;;15.13;11.65;;;;;;;19.87;78.44;98302.31;4100184;85;21028;-82
2021/06/22 04:11:32;;;;;;;13.30;10.30;;;;;;;20.01;78.33;98319.09;4058105;86;21024;-79
2021/06/22 04:17:34;;;;;;;13.38;10.13;;;;;;;20.06;78.58;98317.88;4015072;85;21149;-79
2021/06/22 04:23:37;;;;;;;15.60;9.75;;;;;;;20.30;78.34;98314.02;4060440;85;244450;-78
2021/06/22 04:29:50;;;;;;;17.60;10.53;;;;;;;20.45;78.08;98308.09;4077962;87;21122;-77
2021/06/22 04:35:51;;;;;;;17.40;11.68;;;;;;;20.61;77.82;98303.66;4066961;85;21059;-78
2021/06/22 04:41:52;;;;;;;20.20;10.90;;;;;;;20.73;77.74;98301.40;4032031;87;21089;-78
2021/06/22 04:47:54;;;;;;;17.15;10.05;;;;;;;20.83;77.66;98307.77;4169992;85;21628;-78
2021/06/22 04:53:55;;;;;;;17.32;11.05;;;;;;;21.00;77.41;98311.22;4170137;84;20964;-78
2021/06/22 04:59:57;;;;;;;14.05;11.83;;;;;;;21.14;77.27;98320.36;4172799;84;21360;-78
2021/06/22 05:05:59;;;;;;;16.82;10.72;;;;;;;21.26;77.14;98324.26;4169610;83;21010;-78
2021/06/22 05:12:00;;;;;;;11.93;9.65;;;;;;;21.36;77.07;98318.87;4170515;83;21054;-78
2021/06/22 05:18:03;;;;;;;14.98;9.28;;;;;;;21.48;77.14;98327.69;4044968;86;21047;-78
2021/06/22 05:24:07;;;;;;;17.65;11.33;;;;;;;21.62;77.09;98329.85;4036380;86;21802;-78
2021/06/22 05:30:10;;;;;;;18.52;12.40;;;;;;;21.85;76.67;98336.85;4045012;86;21678;-78
2021/06/22 05:36:13;;;;;;;15.88;11.85;;;;;;;22.01;76.38;98333.72;4044915;86;21141;-78
2021/06/22 05:42:14;;;;;;;22.50;12.75;;;;;;;22.15;75.92;98327.50;4041738;86;21107;-79
2021/06/22 05:48:16;;;;;;;16.35;11.00;;;;;;;22.35;76.22;98338.93;4042898;86;22001;-78
2021/06/22 05:54:17;;;;;;;16.25;10.72;;;;;;;22.55;75.96;98338.56;3988553;87;21047;-78
2021/06/22 06:00:22;;;;;;;16.75;10.35;;;;;;;22.73;75.72;98339.89;3996786;87;21127;-78
2021/06/22 06:06:23;;;;;;;15.90;10.55;;;;;;;22.91;75.25;98332.06;4072401;86;21613;-78
2021/06/22 06:12:26;;;;;;;13.90;8.85;;;;;;;23.05;75.11;98324.39;4078245;86;21117;-78
2021/06/22 06:18:28;;;;;;;11.83;9.90;;;;;;;23.21;74.98;98323.34;4115726;85;21076;-79
2021/06/22 06:24:29;;;;;;;12.28;9.18;;;;;;;23.41;74.83;98315.80;4117985;85;21031;-77
2021/06/22 06:30:34;;;;;;;16.85;9.18;;;;;;;23.64;74.73;98307.23;4126564;84;21067;-78
2021/06/22 06:36:35;;;;;;;15.55;10.32;;;;;;;23.86;74.33;98309.83;4122683;85;21056;-80
2021/06/22 06:42:38;;;;;;;11.80;9.80;;;;;;;24.11;74.26;98315.52;4118543;85;21631;-79
2021/06/22 06:48:41;;;;;;;13.00;9.18;;;;;;;24.35;74.13;98323.19;4117984;85;21040;-80
2021/06/22 06:54:43;;;;;;;16.77;8.85;;;;;;;24.64;73.69;98331.55;4106944;85;21112;-79
2021/06/22 07:00:46;;;;;;;13.90;9.65;;;;;;;24.97;73.35;98335.50;4023776;87;22365;-79
2021/06/22 07:06:47;;;;;;;16.57;8.73;;;;;;;25.51;73.07;98344.56;4129414;85;21046;-81
2021/06/22 07:12:49;;;;;;;17.35;9.15;;;;;;;26.12;72.55;98350.27;4118682;84;21491;-78
2021/06/22 07:18:51;;;;;;;11.40;8.03;;;;;;;26.75;71.92;98353.93;4133780;82;21036;-78
2021/06/22 07:24:59;;;;;;;9.68;7.35;;;;;;;27.66;71.35;98359.09;4129926;84;21031;-78
2021/06/22 07:31:06;;;;;;;11.38;8.00;;;;;;;28.49;69.89;98360.75;4063333;87;21028;-77
2021/06/22 07:37:09;;;;;;;14.43;7.85;;;;;;;28.98;67.94;98354.35;3972451;88;21821;-82
2021/06/22 07:43:11;;;;;;;11.88;7.25;;;;;;;29.34;66.42;98356.11;4053420;87;21522;-80
2021/06/22 07:49:14;;;;;;;13.50;7.92;;;;;;;29.60;65.47;98359.34;3981293;87;21765;-83
2021/06/22 07:55:18;;;;;;;11.38;7.05;;;;;;;29.95;64.73;98366.54;4045154;85;33248;-79
2021/06/22 08:01:20;;;;;;;12.10;7.37;;;;;;;30.09;62.83;98382.38;4064927;86;21076;-79
2021/06/22 08:07:25;;;;;;;12.30;7.60;;;;;;;30.17;62.13;98388.23;4058491;86;21028;-79
2021/06/22 08:13:27;;;;;;;10.28;7.87;;;;;;;30.23;61.02;98399.64;4068563;86;21107;-80
2021/06/22 08:19:29;;;;;;;13.53;8.05;;;;;;;30.25;60.28;98412.60;4047295;86;21338;-80
2021/06/22 08:25:31;;;;;;;11.38;7.70;;;;;;;29.85;59.96;98428.78;4133049;84;21040;-79
2021/06/22 08:31:32;;;;;;;11.35;6.97;;;;;;;29.37;59.72;98447.33;4129436;84;21617;-79
2021/06/22 08:37:34;;;;;;;13.25;7.12;;;;;;;29.02;59.72;98437.97;4130494;84;21076;-79
2021/06/22 08:43:36;;;;;;;23.42;9.45;;;;;;;28.84;59.45;98460.39;4131464;84;21058;-80
2021/06/22 08:49:40;;;;;;;15.38;9.28;;;;;;;28.46;60.34;98464.50;4135771;84;21155;-78
2021/06/22 08:55:44;;;;;;;13.98;8.58;;;;;;;27.91;61.08;98462.91;4136829;84;21106;-81
2021/06/22 09:01:47;;;;;;;9.25;6.33;;;;;;;27.47;61.37;98454.94;4127677;84;21079;-79
2021/06/22 09:07:56;;;;;;;12.30;6.42;;;;;;;27.25;61.41;98451.33;4133508;84;21032;-81
2021/06/22 09:14:01;;;;;;;11.88;5.97;;;;;;;27.24;61.25;98473.67;4134426;84;21079;-81
2021/06/22 09:20:03;;;;;;;9.00;5.15;;;;;;;27.41;60.68;98444.30;4166756;83;21054;-80
2021/06/22 09:26:25;;;;;;;11.00;5.45;;;;;;;27.59;60.15;98442.52;4156696;83;21007;-80
2021/06/22 09:32:29;;;;;;;9.95;5.72;;;;;;;27.85;60.39;98436.75;4158527;83;21873;-79
2021/06/22 09:38:46;;;;;;;9.45;6.17;;;;;;;28.39;60.53;98421.38;4165139;84;21515;-80
2021/06/22 09:44:47;;;;;;;13.20;6.17;;;;;;;28.44;60.04;98415.75;4171873;84;21086;-83
2021/06/22 09:50:49;;;;;;;8.10;5.30;;;;;;;28.15;59.32;98404.94;4165332;84;21031;-81
2021/06/22 09:57:04;;;;;;;8.30;5.50;;;;;;;27.71;59.15;98425.83;4079979;85;21552;-82
2021/06/22 10:03:08;;;;;;;12.23;5.83;;;;;;;27.15;59.61;98444.38;4164236;83;21119;-81
2021/06/22 10:09:10;;;;;;;10.48;4.90;;;;;;;27.24;59.31;98454.64;4072179;85;21071;-80
2021/06/22 10:15:22;;;;;;;10.30;5.05;;;;;;;27.30;59.23;98461.09;4167881;84;21615;-81
2021/06/22 10:21:36;;;;;;;10.40;5.00;;;;;;;27.52;58.86;98442.34;4138586;84;21055;-79
2021/06/22 10:27:47;;;;;;;7.03;4.55;;;;;;;27.86;58.59;98441.13;4033129;86;21071;-81
2021/06/22 10:33:51;;;;;;;8.08;5.10;;;;;;;27.97;58.48;98439.80;4159073;82;21029;-82
2021/06/22 10:46:36;;;;;;;7.78;5.15;;;;;;;28.65;58.46;98434.00;4103585;85;21105;-79
2021/06/22 10:53:09;;;;;;;12.05;5.55;;;;;;;28.82;58.53;98436.19;4105827;85;21054;-81
2021/06/22 10:59:21;;;;;;;8.25;5.17;;;;;;;28.81;57.68;98421.20;4102594;85;21077;-80
2021/06/22 11:05:27;;;;;;;7.83;4.85;;;;;;;28.95;58.10;98423.00;4102376;85;22237;-80
2021/06/22 11:11:28;;;;;;;13.32;5.75;;;;;;;28.70;57.64;98424.02;4096540;85;21094;-83
2021/06/22 11:17:53;;;;;;;6.17;4.70;;;;;;;28.65;57.51;98415.69;4104674;85;21030;-78
2021/06/22 11:24:17;;;;;;;7.03;4.37;;;;;;;28.51;57.56;98412.48;4102124;85;21038;-79
2021/06/22 11:30:42;;;;;;;6.03;5.00;;;;;;;28.21;57.35;98429.64;4104190;85;21062;-80
2021/06/22 11:37:02;;;;;;;7.97;5.80;;;;;;;27.99;57.18;98439.41;4109826;85;21102;-80
2021/06/22 11:43:10;;;;;;;9.65;5.20;;;;;;;28.52;57.28;98434.37;4106775;85;21078;-80
2021/06/22 11:49:22;;;;;;;7.00;4.95;;;;;;;28.67;56.41;98427.22;4099248;85;21979;-81
2021/06/22 11:55:42;;;;;;;9.78;4.65;;;;;;;29.48;55.92;98418.48;4101979;85;21654;-81
2021/06/22 12:01:50;;;;;;;9.73;4.78;;;;;;;30.04;55.03;98412.80;4098900;85;21047;-81
2021/06/22 12:07:57;;;;;;;6.27;4.53;;;;;;;30.57;55.02;98404.45;4081367;85;21043;-81
2021/06/22 12:13:58;;;;;;;10.98;5.30;;;;;;;30.67;53.92;98403.45;4098018;85;21353;-80
2021/06/22 12:20:00;;;;;;;11.73;5.10;;;;;;;30.73;53.07;98387.25;4096475;85;21551;-81
2021/06/22 12:26:03;;;;;;;8.13;4.78;;;;;;;30.68;52.32;98387.39;4102608;85;21062;-81
2021/06/22 12:32:12;;;;;;;9.15;4.90;;;;;;;30.56;52.16;98390.19;4082262;85;21102;-79
2021/06/22 12:38:23;;;;;;;6.25;4.35;;;;;;;30.35;51.99;98379.19;4085882;85;21538;-83
2021/06/22 12:44:26;;;;;;;9.03;5.33;;;;;;;30.16;51.32;98387.45;4135443;83;21062;-79
2021/06/22 12:50:37;;;;;;;12.78;6.10;;;;;;;30.01;51.67;98374.33;4127654;84;21019;-80
2021/06/22 12:56:51;;;;;;;9.23;5.45;;;;;;;29.85;51.72;98373.02;4125980;84;21102;-79
2021/06/22 13:02:55;;;;;;;11.65;5.55;;;;;;;29.90;51.99;98374.38;4128978;84;21042;-80
2021/06/22 13:09:00;;;;;;;12.35;5.80;;;;;;;29.74;51.79;98365.34;4130291;84;21082;-80
2021/06/22 13:15:05;;;;;;;13.28;5.60;;;;;;;29.93;52.11;98364.13;4127576;84;21569;-80
2021/06/22 13:21:13;;;;;;;11.10;5.90;;;;;;;30.02;51.69;98374.44;4130197;84;21050;-80
2021/06/22 13:27:25;;;;;;;9.95;6.10;;;;;;;30.01;51.64;98375.74;4130876;84;21137;-80
2021/06/22 13:33:30;;;;;;;9.35;5.72;;;;;;;29.91;52.15;98373.09;4130772;84;21030;-82
2021/06/22 13:39:32;;;;;;;7.65;5.60;;;;;;;29.81;51.47;98366.23;4133006;84;21066;-80
2021/06/22 13:45:39;;;;;;;6.60;5.62;;;;;;;29.59;51.40;98357.82;4110464;84;21588;-80
2021/06/22 13:51:40;;;;;;;8.45;6.50;;;;;;;29.71;51.84;98342.41;4105111;85;21694;-81
2021/06/22 13:57:43;;;;;;;11.93;5.90;;;;;;;29.92;51.52;98336.55;4100617;85;21058;-82
2021/06/22 14:03:44;;;;;;;11.20;5.65;;;;;;;30.01;50.68;98328.41;4102207;85;21539;-81
2021/06/22 14:09:48;;;;;;;15.40;6.92;;;;;;;30.11;50.68;98339.52;4130217;84;21411;-80
2021/06/22 14:15:54;;;;;;;8.35;5.78;;;;;;;30.23;50.81;98339.59;4102716;85;21579;-81
2021/06/22 14:21:56;;;;;;;11.57;5.95;;;;;;;30.29;50.86;98339.67;4104458;84;21895;-81
2021/06/22 14:27:57;;;;;;;7.42;5.95;;;;;;;30.20;51.63;98335.77;4061442;83;5067445;-79
2021/06/22 14:34:04;;;;;;;9.73;5.90;;;;;;;30.31;51.37;98341.34;4109753;85;21041;-79
2021/06/22 14:40:09;;;;;;;8.93;6.10;;;;;;;30.40;51.00;98334.59;4107449;85;21016;-80
2021/06/22 14:46:17;;;;;;;9.18;6.72;;;;;;;30.44;51.42;98352.81;4111478;85;21769;-80
2021/06/22 14:52:19;;;;;;;8.63;5.50;;;;;;;30.37;50.80;98356.18;4086464;85;21352;-80
2021/06/22 14:58:23;;;;;;;11.10;7.35;;;;;;;30.33;51.04;98353.52;4125390;85;21144;-80
2021/06/22 15:04:24;;;;;;;9.95;6.95;;;;;;;30.29;51.08;98361.48;4096790;85;21549;-80
2021/06/22 15:11:08;;;;;;;;;;;;;;;;;;;;;
2021/06/22 15:17:42;;;;;;;7.58;6.12;;;;;;;29.98;51.14;98361.27;4064661;86;21085;-80
2021/06/22 15:23:45;;;;;;;;;;;;;;;29.70;51.80;98353.58;3929803;89;21066;-80
2021/06/22 15:29:47;;;;;;;7.87;6.08;;;;;;;29.68;51.45;98353.32;3870820;90;20791;-81
2021/06/22 15:35:48;;;;;;;12.25;6.83;;;;;;;29.71;51.34;98350.88;4091030;85;21092;-79
2021/06/22 15:41:50;;;;;;;10.13;6.97;;;;;;;29.73;50.86;98353.95;4087282;85;21099;-81
2021/06/22 15:47:51;;;;;;;7.95;7.10;;;;;;;29.67;51.16;98351.02;4057319;86;21599;-80
2021/06/22 15:53:54;;;;;;;8.50;7.15;;;;;;;29.48;51.89;98339.53;4095589;85;21134;-80
2021/06/22 15:59:57;;;;;;;9.35;6.62;;;;;;;29.26;52.18;98324.72;4095956;85;21094;-79
2021/06/22 16:05:58;;;;;;;11.12;5.55;;;;;;;29.10;52.63;98312.88;4096125;85;21767;-80
2021/06/22 16:11:59;;;;;;;13.85;6.05;;;;;;;29.04;52.21;98326.94;4066345;86;21083;-79
2021/06/22 16:18:03;;;;;;;8.78;5.55;;;;;;;28.86;52.85;98365.52;4088656;85;21092;-84
2021/06/22 16:24:05;;;;;;;10.00;5.70;;;;;;;28.67;52.98;98377.16;4060586;86;21013;-80
2021/06/22 16:30:08;;;;;;;11.75;5.97;;;;;;;28.53;53.18;98366.91;4091951;85;21061;-80
2021/06/22 16:36:09;;;;;;;7.58;6.05;;;;;;;28.42;53.57;98353.58;4096363;85;21126;-80
2021/06/22 16:42:12;;;;;;;12.10;6.33;;;;;;;28.21;54.12;98374.77;4075898;85;21575;-80
2021/06/22 16:48:14;;;;;;;11.40;6.00;;;;;;;28.06;54.86;98383.30;4045723;86;21135;-79
2021/06/22 16:54:18;;;;;;;10.65;6.40;;;;;;;27.84;55.66;98373.34;4034639;86;21090;-79
2021/06/22 17:00:23;;;;;;;21.68;7.45;;;;;;;27.59;56.49;98417.97;4109343;85;21552;-81
2021/06/22 17:06:25;;;;;;;26.07;7.62;;;;;;;27.18;58.90;98490.35;4080321;85;21117;-81
2021/06/22 17:12:26;;;;;;;16.42;6.33;;;;;;;26.81;60.34;98542.88;4082295;85;21238;-79
2021/06/22 17:18:27;;;;;;;13.58;6.08;;;;;;;25.60;64.41;98590.43;4081938;85;21076;-76
2021/06/22 17:24:29;;;;;;;11.43;4.45;;;;;;;23.79;68.28;98632.23;4081786;85;21082;-80
2021/06/22 17:30:43;;;;;;;10.63;4.75;;;;;;;22.46;74.99;98660.69;4084538;85;21043;-77
2021/06/22 17:36:50;;;;;;;11.10;4.47;;;;;;;21.44;75.78;98631.33;4070124;86;21063;-77
2021/06/22 17:43:09;;;;;;;21.42;5.40;;;;;;;21.14;75.68;98594.50;4037402;85;21050;-79
2021/06/22 17:49:16;;;;;;;13.62;5.05;;;;;;;20.66;73.69;98563.08;4055799;86;21414;-80
2021/06/22 17:55:38;;;;;;;11.70;5.12;;;;;;;20.50;76.43;98588.91;4026318;86;21575;-80
2021/06/22 18:01:54;;;;;;;14.55;6.95;;;;;;;20.52;75.79;98561.41;4101160;85;21028;-80
2021/06/22 18:08:16;;;;;;;10.90;7.00;;;;;;;20.60;78.59;98545.42;4102434;85;21076;-80
2021/06/22 18:14:30;;;;;;;11.70;7.37;;;;;;;20.80;79.44;98554.83;4106301;85;21002;-79
2021/06/22 18:20:45;;;;;;;15.20;8.60;;;;;;;20.92;81.08;98587.38;4095782;85;21061;-78
2021/06/22 18:26:49;;;;;;;14.83;9.60;;;;;;;21.09;80.47;98635.47;4107579;85;21024;-78
2021/06/22 18:32:57;;;;;;;13.38;9.78;;;;;;;21.19;80.47;98639.84;4104324;85;21037;-79
2021/06/22 18:39:17;;;;;;;11.03;8.58;;;;;;;21.21;80.60;98631.83;4092090;85;21062;-81
2021/06/22 18:45:21;;;;;;;14.80;9.85;;;;;;;21.36;80.56;98637.64;4028758;87;21090;-78
2021/06/22 18:51:35;;;;;;;13.65;10.50;;;;;;;21.31;81.31;98632.02;4144189;83;21045;-77
2021/06/22 18:57:57;;;;;;;14.25;8.48;;;;;;;21.23;81.85;98643.89;4107379;85;21443;-79
2021/06/22 19:04:09;;;;;;;17.62;11.22;;;;;;;21.19;82.07;98636.30;4079126;86;21037;-77
2021/06/22 19:10:17;;;;;;;11.50;10.30;;;;;;;21.35;82.40;98654.17;4047256;86;21073;-78
2021/06/22 19:16:25;;;;;;;14.20;10.53;;;;;;;21.44;81.97;98675.09;4109473;85;21073;-78
2021/06/22 19:22:31;;;;;;;17.87;12.00;;;;;;;21.50;82.36;98678.23;4060238;86;21074;-78
2021/06/22 19:28:46;;;;;;;;;;;;;;;;;;;;;
2021/06/22 19:34:44;;;;;;;17.00;10.18;;;;;;;21.15;83.58;98703.83;4058809;86;21041;-78
2021/06/22 19:40:59;;;;;;;12.15;7.33;;;;;;;20.97;84.48;98712.80;4063862;86;21051;-78
2021/06/22 19:47:08;;;;;;;12.00;8.73;;;;;;;20.94;83.91;98717.85;4061044;86;21063;-78
2021/06/22 19:53:15;;;;;;;11.08;6.58;;;;;;;20.96;84.78;98716.03;4041309;86;21119;-79
2021/06/22 19:59:20;;;;;;;13.38;7.37;;;;;;;20.72;84.46;98728.16;4054162;85;21032;-79
2021/06/22 20:05:21;;;;;;;14.10;7.67;;;;;;;20.64;84.49;98719.87;4075370;85;21539;-78
2021/06/22 20:11:26;;;;;;;9.38;7.85;;;;;;;20.88;84.88;98698.00;4070512;86;21554;-77
2021/06/22 20:17:35;;;;;;;10.18;7.80;;;;;;;20.96;84.77;98694.56;4062472;86;21598;-78
2021/06/22 20:23:39;;;;;;;11.48;8.50;;;;;;;21.07;84.67;98682.44;4059009;86;21066;-78
2021/06/22 20:29:41;;;;;;;13.48;7.92;;;;;;;21.16;84.50;98671.97;4097357;85;21964;-77
2021/06/22 20:35:46;;;;;;;15.85;8.98;;;;;;;20.91;84.69;98677.02;4050155;86;21077;-77
2021/06/22 20:42:05;;;;;;;10.53;7.70;;;;;;;20.72;85.17;98687.06;4057957;86;22078;-78
2021/06/22 20:47:55;;;;;;;14.53;7.35;;;;;;;20.67;85.31;98699.51;4057656;86;20995;-78
2021/06/22 20:54:00;;;;;;;20.17;9.50;;;;;;;20.63;85.65;98715.55;4062167;86;21103;-78
2021/06/22 21:00:04;;;;;;;14.00;9.90;;;;;;;20.83;85.85;98719.46;4082181;85;21110;-78
2021/06/22 21:06:06;;;;;;;13.10;10.20;;;;;;;20.86;85.53;98728.30;4084511;85;21017;-77
2021/06/22 21:12:09;;;;;;;14.33;10.18;;;;;;;20.60;85.85;98751.81;4083861;85;21054;-78
2021/06/22 21:18:10;;;;;;;14.80;9.63;;;;;;;20.59;86.10;98750.27;4087355;85;21049;-77
2021/06/22 21:24:12;;;;;;;12.55;9.85;;;;;;;20.57;86.47;98753.50;4089413;85;21059;-77
2021/06/22 21:30:32;;;;;;;17.35;10.60;;;;;;;20.73;86.83;98755.36;4090709;85;21585;-78
2021/06/22 21:36:22;;;;;;;14.55;9.00;;;;;;;20.86;86.66;98758.27;4091172;85;21649;-78
2021/06/22 21:42:23;;;;;;;14.38;9.10;;;;;;;20.85;86.64;98761.50;4086360;85;21118;-78
2021/06/22 21:48:26;;;;;;;11.20;8.58;;;;;;;20.83;86.91;98761.95;4086149;85;21046;-78
2021/06/22 21:54:43;;;;;;;18.30;9.13;;;;;;;20.78;86.80;98766.69;4091576;85;21058;-78
2021/06/22 22:00:49;;;;;;;12.55;7.95;;;;;;;20.69;87.22;98779.11;4071436;85;21054;-79
2021/06/22 22:06:52;;;;;;;11.28;8.73;;;;;;;20.71;87.44;98779.45;4086724;85;21077;-79
2021/06/22 22:12:54;;;;;;;17.90;8.03;;;;;;;20.84;87.36;98789.16;4086506;85;21063;-83
2021/06/22 22:18:55;;;;;;;17.85;11.90;;;;;;;20.83;87.37;98802.29;4084169;85;21055;-79
2021/06/22 22:24:58;;;;;;;16.60;11.10;;;;;;;20.80;87.37;98812.13;4111352;85;21476;-79
2021/06/22 22:31:05;;;;;;;15.13;10.65;;;;;;;20.70;87.69;98816.84;4114109;85;21102;-78
2021/06/22 22:37:11;;;;;;;19.27;10.95;;;;;;;20.63;88.01;98807.93;4047352;86;21519;-77
2021/06/22 22:43:17;;;;;;;20.95;13.68;;;;;;;20.72;88.16;98812.23;4069638;86;21589;-80
2021/06/22 22:49:22;;;;;;;18.07;13.78;;;;;;;20.67;88.33;98805.20;4065727;85;21085;-81
2021/06/22 22:55:34;;;;;;;25.75;18.55;;;;;;;20.69;88.44;98809.70;4099382;85;21001;-78
2021/06/22 23:01:38;;;;;;;24.55;15.15;;;;;;;20.56;88.63;98808.96;4110594;85;21099;-79
2021/06/22 23:07:40;;;;;;;24.40;16.30;;;;;;;20.63;88.94;98815.67;4091569;85;21409;-79
2021/06/22 23:13:42;;;;;;;25.60;17.73;;;;;;;20.59;89.00;98805.28;4107162;85;21029;-79
2021/06/22 23:19:43;;;;;;;27.93;21.57;;;;;;;20.55;89.25;98801.06;4051492;86;21053;-83
2021/06/22 23:25:46;;;;;;;23.65;19.05;;;;;;;20.59;89.26;98812.84;4092388;85;21082;-79
2021/06/22 23:31:49;;;;;;;33.25;18.20;;;;;;;20.55;89.35;98818.51;4107829;84;21089;-79
2021/06/22 23:37:58;;;;;;;27.30;18.48;;;;;;;20.58;89.45;98825.95;4099912;85;21046;-80
2021/06/22 23:44:09;;;;;;;25.97;18.25;;;;;;;20.60;89.31;98840.80;4088737;85;21069;-77
2021/06/22 23:50:30;;;;;;;;;;;;;;;;;;;;;
2021/06/22 23:56:22;;;;;;;26.37;16.65;;;;;;;20.54;89.74;98844.77;4049186;86;21097;-79
